Flight Track Log - Related Links

Times and Time Zones

All times are in EDT time to prevent confusion due to time zone crossing. See the UAL4234 flight status page for this flight to view local times or setup timezone preferences in your user account.

Time Position Orientation Groundspeed Altitude Reporting Facility
EDT Latitude Longitude Course Direction KTS MPH feet Rate Location/Type
Thu 09:17:09 AM 29.9506 -95.3353 90° East 176 203 800  Level Houston Center
Thu 09:18:47 AM 29.8814 -95.2472 132° Southeast 271 312 3,500 1,488 Climbing Houston Center
Thu 09:19:18 AM 29.8611 -95.2208 132° Southeast 256 295 4,000 2,036 Climbing Houston Center
Thu 09:19:43 AM 29.8497 -95.1764 106° East 278 320 5,400 2,516 Climbing Houston Center
Thu 09:20:00 AM 29.9833 -94.8460 90° East  Level FlightAware
Thu 09:20:20 AM 29.8442 -95.1331 98° East 278 320 6,600  Level Houston Center
Thu 09:20:50 AM 29.8358 -95.0744 99° East 286 329 8,200 2,459 Climbing Houston Center
Thu 09:21:00 AM 29.9834 -94.7242 90° East  Level FlightAware
Thu 09:21:21 AM 29.8386 -95.0419 84° East 283 326 9,100  Level Houston Center
Thu 09:22:00 AM 29.9833 -94.6023 90° East  Level FlightAware
Thu 09:22:23 AM 29.8583 -94.9517 76° East 288 331 10,700  Level Houston Center
Thu 09:23:25 AM 29.8861 -94.8219 76° East 346 398 11,700 1,122 Climbing Houston Center
Thu 09:24:26 AM 29.9111 -94.7056 76° East 371 427 13,000 1,317 Climbing Houston Center
Thu 09:25:28 AM 29.9364 -94.5861 76° East 382 440 14,400 1,210 Climbing Houston Center
Thu 09:26:30 AM 29.9592 -94.4761 77° East 392 451 15,500 1,452 Climbing Houston Center
Thu 09:27:32 AM 29.9906 -94.3292 76° East 395 455 17,400 1,805 Climbing Houston Center
Thu 09:28:33 AM 30.0089 -94.2064 80° East 390 449 19,200 1,707 Climbing Houston Center
Thu 09:29:35 AM 30.0233 -94.0856 82° East 383 441 20,900 1,694 Climbing Houston Center
Thu 09:30:37 AM 30.0378 -93.9653 82° East 381 438 22,700 1,707 Climbing Houston Center
Thu 09:31:38 AM 30.0525 -93.8464 82° East 379 436 24,400 1,561 Climbing Houston Center
Thu 09:32:40 AM 30.0672 -93.7300 82° East 371 427 25,900 1,645 Climbing Houston Center
Thu 09:33:42 AM 30.0833 -93.5931 82° East 364 419 27,800 1,452 Climbing Houston Center
Thu 09:34:44 AM 30.1219 -93.4864 67° East 368 423 28,900 1,073 Climbing Houston Center
Thu 09:35:45 AM 30.1669 -93.3819 63° Northeast 370 426 30,000 1,171 Climbing Houston Center
Thu 09:36:47 AM 30.2131 -93.2778 63° Northeast 370 426 31,300 1,355 Climbing Houston Center
Thu 09:37:49 AM 30.2575 -93.1747 63° Northeast 364 419 32,800 1,317 Climbing Houston Center
Thu 09:38:50 AM 30.3111 -93.0525 63° Northeast 359 413 34,000 1,024 Climbing Houston Center
Thu 09:39:52 AM 30.3553 -92.9503 63° Northeast 359 413 34,900 484 Climbing Houston Center
Thu 09:40:54 AM 30.3997 -92.8453 64° Northeast 365 420 35,000 48 Climbing Houston Center
Thu 09:41:56 AM 30.4489 -92.7331 63° Northeast 388 447 35,000  Level Houston Center
Thu 09:42:57 AM 30.5033 -92.6050 64° Northeast 412 474 35,000  Level Houston Center
Thu 09:43:59 AM 30.5561 -92.4808 64° Northeast 431 496 35,000  Level Houston Center
Thu 09:45:01 AM 30.6111 -92.3536 63° Northeast 442 509 35,000  Level Houston Center
Thu 09:46:03 AM 30.6650 -92.2264 64° Northeast 443 510 35,000  Level Houston Center
Thu 09:47:05 AM 30.7300 -92.0731 64° Northeast 444 511 35,000  Level Houston Center
Thu 09:48:06 AM 30.7839 -91.9456 64° Northeast 444 511 35,000  Level Houston Center
Thu 09:49:08 AM 30.8381 -91.8181 64° Northeast 442 509 35,000  Level Houston Center
Thu 09:50:10 AM 30.8928 -91.6892 64° Northeast 446 513 35,000  Level Houston Center
Thu 09:51:12 AM 30.9469 -91.5592 64° Northeast 448 516 35,000  Level Houston Center
Thu 09:52:14 AM 31.0014 -91.4275 64° Northeast 452 520 35,000  Level Houston Center
Thu 09:53:16 AM 31.0589 -91.2889 64° Northeast 452 520 35,000  Level Houston Center
Thu 09:54:17 AM 31.1139 -91.1572 64° Northeast 450 518 35,000 537 Level Houston Center
Thu 09:55:19 AM 31.1772 -91.0011 65° Northeast 444 511 36,100 919 Climbing Houston Center
Thu 09:56:21 AM 31.2272 -90.8769 65° Northeast 429 494 36,900 435 Climbing Houston Center
Thu 09:57:23 AM 31.2778 -90.7517 65° Northeast 426 490 37,000 48 Climbing Houston Center
Thu 09:58:25 AM 31.3306 -90.6222 64° Northeast 435 501 37,000  Level Houston Center
Thu 09:59:27 AM 31.3847 -90.4900 64° Northeast 447 514 37,000  Level Houston Center
Thu 10:00:29 AM 31.4392 -90.3575 64° Northeast 450 518 37,000  Level Houston Center
Thu 10:01:31 AM 31.4917 -90.2239 65° Northeast 451 519 37,000  Level Houston Center
Thu 10:02:32 AM 31.5558 -90.0661 64° Northeast 448 516 37,000  Level Houston Center
Thu 10:03:34 AM 31.6083 -89.9328 65° Northeast 449 517 37,000  Level Houston Center
Thu 10:04:36 AM 31.6611 -89.7997 65° Northeast 450 518 37,000  Level Houston Center
Thu 10:05:32 AM 31.7078 -89.6811 65° Northeast 445 512 37,000  Level Memphis Center
Thu 10:06:33 AM 31.7611 -89.5511 64° Northeast 440 506 37,000  Level Memphis Center
Thu 10:07:32 AM 31.8125 -89.4136 66° East 445 512 37,000  Level Memphis Center
Thu 10:08:32 AM 31.8656 -89.2786 65° Northeast 445 512 37,000  Level Memphis Center
Thu 10:09:32 AM 31.9144 -89.1508 66° East 437 503 37,000  Level Memphis Center
Thu 10:10:32 AM 31.9756 -88.9958 65° Northeast 448 516 37,000  Level Memphis Center
Thu 10:11:32 AM 32.0322 -88.8553 65° Northeast 458 527 37,000  Level Memphis Center
Thu 10:14:25 AM 32.1806 -88.4681 66° East 447 514 37,000  Level Atlanta Center
Thu 10:15:25 AM 32.2333 -88.3308 66° East 447 514 37,000  Level Atlanta Center
Thu 10:16:25 AM 32.2861 -88.1933 66° East 452 520 37,000  Level Atlanta Center
Thu 10:17:25 AM 32.3386 -88.0556 66° East 452 520 37,000  Level Atlanta Center
Thu 10:18:25 AM 32.3911 -87.9153 66° East 452 520 37,000  Level Atlanta Center
Thu 10:19:25 AM 32.4436 -87.7750 66° East 452 520 37,000  Level Atlanta Center
Thu 10:20:25 AM 32.4958 -87.6319 67° East 452 520 37,000  Level Atlanta Center
Thu 10:21:25 AM 32.5478 -87.4911 66° East 458 527 37,000  Level Atlanta Center
Thu 10:22:25 AM 32.5975 -87.3550 67° East 458 527 37,000  Level Atlanta Center
Thu 10:23:25 AM 32.6514 -87.2139 66° East 458 527 37,000  Level Atlanta Center
Thu 10:24:25 AM 32.7008 -87.0750 67° East 458 527 37,000  Level Atlanta Center
Thu 10:25:25 AM 32.7522 -86.9336 67° East 452 520 37,000  Level Atlanta Center
Thu 10:26:25 AM 32.8056 -86.7869 67° East 457 526 37,000  Level Atlanta Center
Thu 10:27:25 AM 32.8522 -86.6550 67° East 452 520 37,000  Level Atlanta Center
Thu 10:28:25 AM 32.9053 -86.5106 66° East 461 531 37,000  Level Atlanta Center
Thu 10:29:25 AM 32.9561 -86.3658 67° East 461 531 37,000  Level Atlanta Center
Thu 10:30:25 AM 33.0044 -86.2311 67° East 451 519 37,000  Level Atlanta Center
Thu 10:31:25 AM 33.0550 -86.0883 67° East 451 519 37,000  Level Atlanta Center
Thu 10:32:25 AM 33.1053 -85.9433 67° East 456 525 37,000  Level Atlanta Center
Thu 10:33:25 AM 33.1553 -85.8056 67° East 451 519 37,000  Level Atlanta Center
Thu 10:34:25 AM 33.2053 -85.6700 66° East 451 519 37,000  Level Atlanta Center
Thu 10:35:25 AM 33.2550 -85.5292 67° East 451 519 37,000  Level Atlanta Center
Thu 10:36:25 AM 33.3028 -85.3858 68° East 451 519 37,000  Level Atlanta Center
Thu 10:37:25 AM 33.3456 -85.2622 67° East 451 519 37,000  Level Atlanta Center
Thu 10:38:25 AM 33.3928 -85.1261 67° East 445 512 37,000  Level Atlanta Center
Thu 10:39:25 AM 33.4419 -84.9847 67° East 445 512 37,000 -250 Level Atlanta Center
Thu 10:40:25 AM 33.4889 -84.8433 68° East 454 522 36,500 -700 Descending Atlanta Center
Thu 10:41:25 AM 33.5358 -84.7042 68° East 449 517 35,600 -750 Descending Atlanta Center
Thu 10:42:25 AM 33.5822 -84.5625 69° East 449 517 35,000 -300 Descending Atlanta Center
Thu 10:43:25 AM 33.6289 -84.4106 70° East 449 517 35,000  Level Atlanta Center
Thu 10:44:25 AM 33.6731 -84.2686 69° East 449 517 35,000  Level Atlanta Center
Thu 10:45:25 AM 33.7108 -84.1361 71° East 454 522 35,000  Level Atlanta Center
Thu 10:46:25 AM 33.7525 -83.9939 71° East 454 522 35,000  Level Atlanta Center
Thu 10:47:25 AM 33.7961 -83.8389 71° East 443 510 35,000  Level Atlanta Center
Thu 10:48:25 AM 33.8356 -83.6961 72° East 443 510 35,000 -200 Level Atlanta Center
Thu 10:49:25 AM 33.8747 -83.5533 72° East 443 510 34,600 -650 Descending Atlanta Center
Thu 10:50:25 AM 33.9136 -83.4106 72° East 443 510 33,700 -950 Descending Atlanta Center
Thu 10:51:25 AM 33.9547 -83.2700 71° East 441 507 32,700 -950 Descending Atlanta Center
Thu 10:52:25 AM 33.9911 -83.1219 73° East 449 517 31,800 -850 Descending Atlanta Center
Thu 10:53:25 AM 34.0236 -83.0086 71° East 449 517 31,000 -950 Descending Atlanta Center
Thu 10:54:25 AM 34.0742 -82.8325 71° East 462 532 29,900 -1,000 Descending Atlanta Center
Thu 10:55:25 AM 34.1103 -82.6839 74° East 457 526 29,000 -900 Descending Atlanta Center
Thu 10:56:25 AM 34.1525 -82.5378 71° East 462 532 28,100 -1,000 Descending Atlanta Center
Thu 10:57:25 AM 34.1900 -82.3839 74° East 462 532 27,000 -1,750 Descending Atlanta Center
Thu 10:58:25 AM 34.2319 -82.2372 71° East 462 532 24,600 -2,300 Descending Atlanta Center
Thu 10:59:25 AM 34.2883 -82.1028 63° Northeast 457 526 22,400 -2,250 Descending Atlanta Center
Thu 11:00:25 AM 34.3700 -82.0028 45° Northeast 428 493 20,100 -2,250 Descending Atlanta Center
Thu 11:01:25 AM 34.4478 -81.9053 46° Northeast 417 480 17,900 -2,300 Descending Atlanta Center
Thu 11:02:25 AM 34.5253 -81.8075 46° Northeast 398 458 15,500 -2,447 Descending Atlanta Center
Thu 11:02:41 AM 34.5436 -81.7869 43° Northeast 388 447 14,800 -2,400 Descending Atlanta Center
Thu 11:03:25 AM 34.5947 -81.7172 48° Northeast 376 433 13,100 -2,077 Descending Atlanta Center
Thu 11:04:25 AM 34.6700 -81.6294 44° Northeast 371 427 11,200 -1,100 Descending Atlanta Center
Thu 11:05:25 AM 34.7331 -81.5467 47° Northeast 350 403 10,900 -150 Descending Atlanta Center
Thu 11:06:25 AM 34.7900 -81.4717 47° Northeast 311 358 10,900 -450 Level Atlanta Center
Thu 11:07:25 AM 34.8236 -81.3844 65° Northeast 282 325 10,000 -1,150 Descending Atlanta Center
Thu 11:08:25 AM 34.8531 -81.3000 67° East 276 318 8,600 -1,150 Descending Atlanta Center
Thu 11:09:25 AM 34.8825 -81.2156 67° East 271 312 7,700 -1,016 Descending Atlanta Center
Thu 11:10:29 AM 34.9097 -81.1311 69° East 258 297 6,500 -1,450 Descending Atlanta Center
Thu 11:11:25 AM 34.9372 -81.0542 66° East 251 289 4,800 -1,190 Descending Atlanta Center
Thu 11:12:30 AM 34.9664 -80.9694 67° East 244 281 4,100 -333 Descending Atlanta Center
Thu 11:13:31 AM 35.0239 -80.9394 23° Northeast 265 305 4,100 -639 Level Atlanta Center
Thu 11:14:32 AM 35.0972 -80.9469 355° North 265 305 2,800 -1,279 Descending Atlanta Center

Login

Don't have an account? Register now (free) for customized features, flight alerts, and more!